createdAt,value
2019-05-18T00:00:55.881Z,100.00
2019-05-18T00:03:25.210Z,100.00
2019-05-18T00:05:54.513Z,100.00
2019-05-18T00:08:23.927Z,100.00
2019-05-18T00:10:53.238Z,100.00
2019-05-18T00:13:22.568Z,100.00
2019-05-18T00:15:52.256Z,100.00
2019-05-18T00:18:21.590Z,100.00
2019-05-18T00:20:51.052Z,100.00
2019-05-18T00:23:20.622Z,100.00
2019-05-18T00:25:50.134Z,100.00
2019-05-18T00:28:19.496Z,100.00
2019-05-18T00:30:49.474Z,100.00
2019-05-18T00:33:18.844Z,100.00
2019-05-18T00:35:48.166Z,100.00
2019-05-18T00:38:17.676Z,100.00
2019-05-18T00:40:47.001Z,100.00
2019-05-18T00:43:16.361Z,100.00
2019-05-18T00:45:45.989Z,100.00
2019-05-18T00:48:15.248Z,100.00
2019-05-18T00:50:44.599Z,100.00
2019-05-18T00:53:14.277Z,100.00
2019-05-18T00:55:43.572Z,100.00
2019-05-18T00:58:12.870Z,100.00
2019-05-18T01:00:42.700Z,100.00
2019-05-18T01:03:11.967Z,100.00
2019-05-18T01:05:41.310Z,100.00
2019-05-18T01:08:10.673Z,100.00
2019-05-18T01:10:39.967Z,100.00
2019-05-18T01:13:09.305Z,100.00
2019-05-18T01:15:38.837Z,100.00
2019-05-18T01:18:08.164Z,100.00
2019-05-18T01:20:37.478Z,100.00
2019-05-18T01:23:06.986Z,100.00
2019-05-18T01:25:36.293Z,100.00
2019-05-18T01:28:05.614Z,100.00
2019-05-18T01:30:35.109Z,100.00
2019-05-18T01:33:04.482Z,100.00
2019-05-18T01:35:33.827Z,100.00
2019-05-18T01:38:03.194Z,100.00
2019-05-18T01:40:32.660Z,100.00
2019-05-18T01:43:02.066Z,100.00
2019-05-18T01:45:33.126Z,100.00
2019-05-18T01:48:13.366Z,100.00
2019-05-18T01:50:33.499Z,100.00
2019-05-18T01:53:03.223Z,100.00
2019-05-18T01:55:32.586Z,100.00
2019-05-18T01:58:01.894Z,100.00
2019-05-18T02:00:31.408Z,100.00
2019-05-18T02:03:00.703Z,100.00
2019-05-18T02:05:30.106Z,100.00
2019-05-18T02:07:59.720Z,100.00
2019-05-18T02:10:29.030Z,100.00
2019-05-18T02:12:58.304Z,100.00
2019-05-18T02:15:27.910Z,100.00
2019-05-18T02:17:57.189Z,100.00
2019-05-18T02:20:26.536Z,100.00
2019-05-18T02:22:56.258Z,100.00
2019-05-18T02:25:25.550Z,100.00
2019-05-18T02:27:54.838Z,100.00
2019-05-18T02:30:24.397Z,100.00
2019-05-18T02:32:53.750Z,100.00
2019-05-18T02:35:23.049Z,100.00
2019-05-18T02:37:54.224Z,100.00
2019-05-18T02:40:23.581Z,100.00
2019-05-18T02:42:53.120Z,100.00
2019-05-18T02:45:22.786Z,100.00
2019-05-18T02:47:52.040Z,100.00
2019-05-18T02:50:21.348Z,100.00
2019-05-18T02:52:50.841Z,100.00
2019-05-18T02:55:20.216Z,100.00
2019-05-18T02:57:49.537Z,100.00
2019-05-18T03:00:19.258Z,100.00
2019-05-18T03:02:48.542Z,100.00
2019-05-18T03:05:17.857Z,100.00
2019-05-18T03:07:47.722Z,100.00
2019-05-18T03:10:17.402Z,100.00
2019-05-18T03:12:46.932Z,100.00
2019-05-18T03:15:17.031Z,100.00
2019-05-18T03:17:46.367Z,100.00
2019-05-18T03:20:15.857Z,100.00
2019-05-18T03:25:13.732Z,100.00
2019-05-18T03:27:42.988Z,100.00
2019-05-18T03:30:12.604Z,100.00
2019-05-18T03:32:42.058Z,100.00
2019-05-18T03:35:11.481Z,100.00
2019-05-18T03:37:40.849Z,100.00
2019-05-18T03:40:10.458Z,100.00
2019-05-18T03:42:39.812Z,100.00
2019-05-18T03:45:09.526Z,100.00
2019-05-18T03:47:38.973Z,100.00
2019-05-18T03:50:08.714Z,100.00
2019-05-18T03:52:38.228Z,100.00
2019-05-18T03:55:08.010Z,100.00
2019-05-18T03:57:37.367Z,100.00
2019-05-18T04:00:08.189Z,100.00
2019-05-18T04:02:37.509Z,100.00
2019-05-18T04:05:07.130Z,100.00
2019-05-18T04:07:36.504Z,100.00
2019-05-18T04:10:06.175Z,100.00
2019-05-18T04:12:35.536Z,100.00
2019-05-18T04:15:05.471Z,100.00
2019-05-18T04:17:35.022Z,100.00
2019-05-18T04:20:04.685Z,100.00
2019-05-18T04:22:34.089Z,100.00
2019-05-18T04:25:03.605Z,100.00
2019-05-18T04:27:33.018Z,100.00
2019-05-18T04:30:02.394Z,100.00
2019-05-18T04:32:31.664Z,100.00
2019-05-18T04:35:00.924Z,100.00
2019-05-18T04:37:30.255Z,100.00
2019-05-18T04:39:59.699Z,100.00
2019-05-18T04:42:28.975Z,100.00
2019-05-18T04:44:58.319Z,100.00
2019-05-18T04:47:27.780Z,100.00
2019-05-18T04:50:05.243Z,100.00
2019-05-18T04:52:28.278Z,100.00
2019-05-18T04:54:57.696Z,100.00
2019-05-18T04:57:26.989Z,100.00
2019-05-18T04:59:56.410Z,100.00
2019-05-18T05:02:25.926Z,100.00
2019-05-18T05:04:56.672Z,100.00
2019-05-18T05:07:26.433Z,100.00
2019-05-18T05:09:55.784Z,100.00
2019-05-18T05:12:25.057Z,100.00
2019-05-18T05:14:54.441Z,100.00
2019-05-18T05:17:23.757Z,100.00
2019-05-18T05:19:53.196Z,100.00
2019-05-18T05:22:22.957Z,100.00
2019-05-18T05:24:52.556Z,100.00
2019-05-18T05:27:21.875Z,100.00
2019-05-18T05:29:51.448Z,100.00
2019-05-18T05:32:20.716Z,100.00
2019-05-18T05:34:50.187Z,100.00
2019-05-18T05:37:20.051Z,100.00
2019-05-18T05:39:49.391Z,100.00
2019-05-18T05:42:19.016Z,100.00
2019-05-18T05:44:48.527Z,100.00
2019-05-18T05:47:18.029Z,100.00
2019-05-18T05:49:47.312Z,100.00
2019-05-18T05:52:16.673Z,99.51
2019-05-18T05:54:46.269Z,100.00
2019-05-18T05:57:15.599Z,100.00
2019-05-18T05:59:44.969Z,100.00
2019-05-18T06:02:14.445Z,99.80
2019-05-18T06:04:43.752Z,100.00
2019-05-18T06:07:13.197Z,100.00
2019-05-18T06:09:42.647Z,100.00
2019-05-18T06:12:11.952Z,99.93
2019-05-18T06:14:41.332Z,100.00
2019-05-18T06:17:10.971Z,100.00
2019-05-18T06:19:40.342Z,100.00
2019-05-18T06:22:09.787Z,100.00
2019-05-18T06:24:39.562Z,100.00
2019-05-18T06:27:08.825Z,100.00
2019-05-18T06:29:38.120Z,100.00
2019-05-18T06:32:07.876Z,100.00
2019-05-18T06:34:37.382Z,100.00
2019-05-18T06:37:06.821Z,100.00
2019-05-18T06:39:36.227Z,100.00
2019-05-18T06:42:05.564Z,100.00
2019-05-18T06:44:35.000Z,100.00
2019-05-18T06:47:04.431Z,100.00
2019-05-18T06:49:33.776Z,100.00
2019-05-18T06:52:03.618Z,100.00
2019-05-18T06:54:33.243Z,99.39
2019-05-18T06:57:03.645Z,99.64
2019-05-18T06:59:33.510Z,99.54
2019-05-18T07:02:02.937Z,99.63
2019-05-18T07:04:32.319Z,98.81
2019-05-18T07:07:01.778Z,97.94
2019-05-18T07:09:31.088Z,98.46
2019-05-18T07:12:00.397Z,98.88
2019-05-18T07:14:29.845Z,98.54
2019-05-18T07:16:59.762Z,97.32
2019-05-18T07:19:29.041Z,97.18
2019-05-18T07:21:58.441Z,96.08
2019-05-18T07:24:27.889Z,96.25
2019-05-18T07:26:57.248Z,97.90
2019-05-18T07:29:26.648Z,97.70
2019-05-18T07:31:55.994Z,97.51
2019-05-18T07:34:26.696Z,98.05
2019-05-18T07:36:56.162Z,97.40
2019-05-18T07:39:25.531Z,97.53
2019-05-18T07:41:54.774Z,97.75
2019-05-18T07:44:24.146Z,98.17
2019-05-18T07:46:54.134Z,97.01
2019-05-18T07:49:23.543Z,96.68
2019-05-18T07:51:52.892Z,95.42
2019-05-18T07:54:22.358Z,95.54
2019-05-18T07:56:51.661Z,94.91
2019-05-18T07:59:21.029Z,94.68
2019-05-18T08:01:50.606Z,94.96
2019-05-18T08:04:19.856Z,95.64
2019-05-18T08:06:49.477Z,93.94
2019-05-18T08:09:18.924Z,94.70
2019-05-18T08:11:48.252Z,94.54
2019-05-18T08:14:17.710Z,94.19
2019-05-18T08:16:47.306Z,96.20
2019-05-18T08:19:16.634Z,93.77
2019-05-18T08:21:53.380Z,94.83
2019-05-18T08:24:17.545Z,95.46
2019-05-18T08:26:46.933Z,95.24
2019-05-18T08:29:16.331Z,93.96
2019-05-18T08:31:46.273Z,93.84
2019-05-18T08:34:15.588Z,95.07
2019-05-18T08:36:45.475Z,93.49
2019-05-18T08:39:14.916Z,94.71
2019-05-18T08:41:44.276Z,95.53
2019-05-18T08:44:13.601Z,94.31
2019-05-18T08:46:43.120Z,95.53
2019-05-18T08:49:12.400Z,95.92
2019-05-18T08:51:41.813Z,94.72
2019-05-18T08:54:11.637Z,95.09
2019-05-18T08:56:41.377Z,93.35
2019-05-18T08:59:10.757Z,94.49
2019-05-18T09:01:40.440Z,94.21
2019-05-18T09:04:09.729Z,95.33
2019-05-18T09:06:39.040Z,95.41
2019-05-18T09:09:08.962Z,95.40
2019-05-18T09:11:38.302Z,94.56
2019-05-18T09:14:07.763Z,93.35
2019-05-18T09:16:37.480Z,93.96
2019-05-18T09:19:06.794Z,95.18
2019-05-18T09:21:36.249Z,93.45
2019-05-18T09:24:05.902Z,93.87
2019-05-18T09:26:35.507Z,93.78
2019-05-18T09:29:05.152Z,93.54
2019-05-18T09:31:34.841Z,94.87
2019-05-18T09:34:04.149Z,93.75
2019-05-18T09:36:33.790Z,94.21
2019-05-18T09:39:04.270Z,93.27
2019-05-18T09:41:33.579Z,94.38
2019-05-18T09:44:03.363Z,94.47
2019-05-18T09:46:33.258Z,94.44
2019-05-18T09:49:02.664Z,94.62
2019-05-18T09:51:32.109Z,95.96
2019-05-18T09:54:02.075Z,96.41
2019-05-18T09:56:31.334Z,95.71
2019-05-18T09:59:00.674Z,96.43
2019-05-18T10:01:30.326Z,96.51
2019-05-18T10:03:59.690Z,95.57
2019-05-18T10:06:31.433Z,95.31
2019-05-18T10:09:01.306Z,95.77
2019-05-18T10:11:37.650Z,96.94
2019-05-18T10:14:02.249Z,95.12
2019-05-18T10:16:31.528Z,96.13
2019-05-18T10:19:00.790Z,95.75
2019-05-18T10:21:30.718Z,95.32
2019-05-18T10:24:00.094Z,96.14
2019-05-18T10:26:29.402Z,95.15
2019-05-18T10:28:59.168Z,95.69
2019-05-18T10:31:28.493Z,94.31
2019-05-18T10:33:57.804Z,95.34
2019-05-18T10:36:27.144Z,94.68
2019-05-18T10:38:56.470Z,95.19
2019-05-18T10:41:26.375Z,95.49
2019-05-18T10:43:56.652Z,93.57
2019-05-18T10:46:26.186Z,93.58
2019-05-18T10:48:55.482Z,92.50
2019-05-18T10:51:24.852Z,90.86
2019-05-18T10:53:54.208Z,91.75
2019-05-18T10:56:23.633Z,92.53
2019-05-18T10:58:53.365Z,91.97
2019-05-18T11:01:22.727Z,91.36
2019-05-18T11:03:51.982Z,92.79
2019-05-18T11:06:21.886Z,92.87
2019-05-18T11:08:51.231Z,92.53
2019-05-18T11:11:20.488Z,91.15
2019-05-18T11:13:50.197Z,91.08
2019-05-18T11:16:19.700Z,89.46
2019-05-18T11:18:49.068Z,92.28
2019-05-18T11:21:18.602Z,89.59
2019-05-18T11:23:48.187Z,89.94
2019-05-18T11:26:17.455Z,90.22
2019-05-18T11:28:47.019Z,91.50
2019-05-18T11:31:16.302Z,91.19
2019-05-18T11:33:45.598Z,91.21
2019-05-18T11:36:15.192Z,88.85
2019-05-18T11:38:44.540Z,91.73
2019-05-18T11:41:13.817Z,88.88
2019-05-18T11:43:43.110Z,88.86
2019-05-18T11:46:12.407Z,88.03
2019-05-18T11:48:41.734Z,87.99
2019-05-18T11:51:11.308Z,88.69
2019-05-18T11:53:40.664Z,88.81
2019-05-18T11:56:10.013Z,89.56
2019-05-18T11:58:39.664Z,89.16
2019-05-18T12:01:08.945Z,86.98
2019-05-18T12:03:38.305Z,88.97
2019-05-18T12:06:08.609Z,88.82
2019-05-18T12:08:37.947Z,91.06
2019-05-18T12:11:07.230Z,92.23
2019-05-18T12:13:36.879Z,91.13
2019-05-18T12:16:06.157Z,90.29
2019-05-18T12:18:35.472Z,88.36
2019-05-18T12:21:05.010Z,88.76
2019-05-18T12:23:34.345Z,90.01
2019-05-18T12:26:03.780Z,89.81
2019-05-18T12:28:33.447Z,88.02
2019-05-18T12:31:02.831Z,88.59
2019-05-18T12:33:32.102Z,87.24
2019-05-18T12:36:01.717Z,86.82
2019-05-18T12:38:30.987Z,89.75
2019-05-18T12:41:00.245Z,90.18
2019-05-18T12:43:29.620Z,89.11
2019-05-18T12:45:58.976Z,88.80
2019-05-18T12:48:28.336Z,89.17
2019-05-18T12:50:57.796Z,91.00
2019-05-18T12:53:27.050Z,90.19
2019-05-18T12:55:56.313Z,89.97
2019-05-18T12:58:25.927Z,87.66
2019-05-18T13:00:55.346Z,87.34
2019-05-18T13:03:24.715Z,86.22
2019-05-18T13:05:54.233Z,86.51
2019-05-18T13:08:23.575Z,85.29
2019-05-18T13:10:52.914Z,87.50
2019-05-18T13:13:22.885Z,86.82
2019-05-18T13:15:52.196Z,88.11
2019-05-18T13:18:21.489Z,86.26
2019-05-18T13:20:51.170Z,84.96
2019-05-18T13:23:20.462Z,83.93
2019-05-18T13:25:49.796Z,85.93
2019-05-18T13:28:19.197Z,84.16
2019-05-18T13:30:48.917Z,83.02
2019-05-18T13:33:18.549Z,83.82
2019-05-18T13:35:47.982Z,82.30
2019-05-18T13:38:17.353Z,83.33
2019-05-18T13:40:46.677Z,83.71
2019-05-18T13:43:16.379Z,83.62
2019-05-18T13:45:45.693Z,83.30
2019-05-18T13:48:14.971Z,81.55
2019-05-18T13:50:44.936Z,80.31
2019-05-18T13:53:14.341Z,84.36
2019-05-18T13:55:43.683Z,83.14
2019-05-18T13:58:13.323Z,83.18
2019-05-18T14:00:42.663Z,83.56
2019-05-18T14:03:11.941Z,84.25
2019-05-18T14:05:41.336Z,84.53
2019-05-18T14:08:15.529Z,84.54
2019-05-18T14:10:41.646Z,85.15
2019-05-18T14:13:11.153Z,86.06
2019-05-18T14:15:40.490Z,87.65
2019-05-18T14:18:09.876Z,87.18
2019-05-18T14:20:40.334Z,86.85
2019-05-18T14:23:09.687Z,88.39
2019-05-18T14:25:39.002Z,88.09
2019-05-18T14:28:08.594Z,89.06
2019-05-18T14:30:37.856Z,89.05
2019-05-18T14:33:07.146Z,88.02
2019-05-18T14:35:36.765Z,88.76
2019-05-18T14:38:06.053Z,88.96
2019-05-18T14:40:35.377Z,89.08
2019-05-18T14:43:05.048Z,88.95
2019-05-18T14:45:34.511Z,89.20
2019-05-18T14:48:03.836Z,89.20
2019-05-18T14:50:33.963Z,88.73
2019-05-18T14:53:03.252Z,89.84
2019-05-18T14:55:34.054Z,88.25
2019-05-18T14:58:03.798Z,88.53
2019-05-18T15:00:33.109Z,88.71
2019-05-18T15:03:02.619Z,90.75
2019-05-18T15:05:32.074Z,90.52
2019-05-18T15:08:01.352Z,89.53
2019-05-18T15:10:30.704Z,90.25
2019-05-18T15:13:00.258Z,88.80
2019-05-18T15:15:29.561Z,89.53
2019-05-18T15:17:58.872Z,90.21
2019-05-18T15:20:28.461Z,91.42
2019-05-18T15:22:57.796Z,91.67
2019-05-18T15:25:27.098Z,91.47
2019-05-18T15:27:56.429Z,91.58
2019-05-18T15:30:25.768Z,90.90
2019-05-18T15:32:55.049Z,90.76
2019-05-18T15:35:24.594Z,90.83
2019-05-18T15:37:53.899Z,90.36
2019-05-18T15:40:23.170Z,90.73
2019-05-18T15:42:52.719Z,90.52
2019-05-18T15:45:24.713Z,90.03
2019-05-18T15:47:53.479Z,90.39
2019-05-18T15:50:23.067Z,91.45
2019-05-18T15:52:52.497Z,92.16
2019-05-18T15:55:21.852Z,91.42
2019-05-18T15:57:51.431Z,91.31
2019-05-18T16:00:21.150Z,91.46
2019-05-18T16:02:50.482Z,90.92
2019-05-18T16:05:20.040Z,90.69
2019-05-18T16:07:49.387Z,90.16
2019-05-18T16:10:19.078Z,91.94
2019-05-18T16:12:48.604Z,93.06
2019-05-18T16:15:18.027Z,94.28
2019-05-18T16:17:47.618Z,92.60
2019-05-18T16:20:17.828Z,93.82
2019-05-18T16:22:47.374Z,94.68
2019-05-18T16:25:17.360Z,93.66
2019-05-18T16:27:46.908Z,92.24
2019-05-18T16:30:17.075Z,92.35
2019-05-18T16:32:46.465Z,92.27
2019-05-18T16:35:16.426Z,92.18
2019-05-18T16:37:45.797Z,93.46
2019-05-18T16:40:15.196Z,93.37
2019-05-18T16:42:46.693Z,93.06
2019-05-18T16:45:15.857Z,93.79
2019-05-18T16:47:45.264Z,94.49
2019-05-18T16:50:15.015Z,94.24
2019-05-18T16:52:44.309Z,93.60
2019-05-18T16:55:13.971Z,94.03
2019-05-18T16:57:43.355Z,94.13
2019-05-18T17:00:16.260Z,94.13
2019-05-18T17:02:45.046Z,93.98
2019-05-18T17:05:15.489Z,93.98
2019-05-18T17:07:44.937Z,93.90
2019-05-18T17:10:15.189Z,93.79
2019-05-18T17:12:44.559Z,93.29
2019-05-18T17:15:14.331Z,92.18
2019-05-18T17:17:43.833Z,93.75
2019-05-18T17:20:13.729Z,93.20
2019-05-18T17:22:43.013Z,92.56
2019-05-18T17:25:12.578Z,92.87
2019-05-18T17:27:42.194Z,93.65
2019-05-18T17:30:11.772Z,92.07
2019-05-18T17:32:41.156Z,92.19
2019-05-18T17:35:11.435Z,91.30
2019-05-18T17:37:40.800Z,92.12
2019-05-18T17:40:11.517Z,92.55
2019-05-18T17:42:40.848Z,92.87
2019-05-18T17:45:11.090Z,93.63
2019-05-18T17:47:40.473Z,93.83
2019-05-18T17:50:10.371Z,93.75
2019-05-18T17:52:39.669Z,93.92
2019-05-18T17:55:09.384Z,94.09
2019-05-18T17:57:38.728Z,94.18
2019-05-18T18:00:08.551Z,94.24
2019-05-18T18:02:38.058Z,94.54
2019-05-18T18:05:07.613Z,94.15
2019-05-18T18:07:36.922Z,94.13
2019-05-18T18:10:06.964Z,93.40
2019-05-18T18:12:36.519Z,94.05
2019-05-18T18:15:06.800Z,94.70
2019-05-18T18:17:36.511Z,95.31
2019-05-18T18:20:06.513Z,95.26
2019-05-18T18:22:35.850Z,95.78
2019-05-18T18:25:05.904Z,96.02
2019-05-18T18:27:35.270Z,96.00
2019-05-18T18:30:05.614Z,96.24
2019-05-18T18:32:35.297Z,96.45
2019-05-18T18:35:04.720Z,96.43
2019-05-18T18:37:34.009Z,96.62
2019-05-18T18:40:03.392Z,96.46
2019-05-18T18:42:32.763Z,96.94
2019-05-18T18:45:02.252Z,97.27
2019-05-18T18:47:31.732Z,97.77
2019-05-18T18:50:01.213Z,97.82
2019-05-18T18:52:30.494Z,98.02
2019-05-18T18:55:00.041Z,98.07
2019-05-18T18:57:40.665Z,98.06
2019-05-18T19:00:00.649Z,97.94
2019-05-18T19:02:30.104Z,98.37
2019-05-18T19:04:59.521Z,98.69
2019-05-18T19:07:28.890Z,99.13
2019-05-18T19:09:58.381Z,99.22
2019-05-18T19:12:27.887Z,99.33
2019-05-18T19:14:57.197Z,99.37
2019-05-18T19:17:26.656Z,99.43
2019-05-18T19:19:56.067Z,99.51
2019-05-18T19:22:25.429Z,99.45
2019-05-18T19:24:55.868Z,99.05
2019-05-18T19:27:25.311Z,99.29
2019-05-18T19:29:54.597Z,99.31
2019-05-18T19:32:24.093Z,99.60
2019-05-18T19:34:53.393Z,99.90
2019-05-18T19:37:26.274Z,100.00
2019-05-18T19:39:53.865Z,100.00
2019-05-18T19:42:23.240Z,100.00
2019-05-18T19:44:52.510Z,100.00
2019-05-18T19:47:22.148Z,100.00
2019-05-18T19:49:51.621Z,100.00
2019-05-18T19:52:21.017Z,100.00
2019-05-18T19:54:50.542Z,100.00
2019-05-18T19:57:19.891Z,100.00
2019-05-18T19:59:49.315Z,100.00
2019-05-18T20:02:19.257Z,100.00
2019-05-18T20:05:05.830Z,100.00
2019-05-18T20:07:19.832Z,100.00
2019-05-18T20:09:49.229Z,100.00
2019-05-18T20:12:18.609Z,100.00
2019-05-18T20:14:48.331Z,100.00
2019-05-18T20:17:17.977Z,100.00
2019-05-18T20:19:47.493Z,100.00
2019-05-18T20:22:17.235Z,100.00
2019-05-18T20:24:46.559Z,100.00
2019-05-18T20:27:16.165Z,100.00
2019-05-18T20:29:46.082Z,100.00
2019-05-18T20:32:15.412Z,100.00
2019-05-18T20:34:44.775Z,100.00
2019-05-18T20:37:14.390Z,100.00
2019-05-18T20:39:43.671Z,100.00
2019-05-18T20:42:13.167Z,100.00
2019-05-18T20:44:42.918Z,100.00
2019-05-18T20:47:12.244Z,100.00
2019-05-18T20:49:41.707Z,100.00
2019-05-18T20:52:11.438Z,100.00
2019-05-18T20:54:40.746Z,100.00
2019-05-18T20:57:10.102Z,100.00
2019-05-18T20:59:39.772Z,100.00
2019-05-18T21:02:09.077Z,100.00
2019-05-18T21:04:38.598Z,100.00
2019-05-18T21:07:08.159Z,100.00
2019-05-18T21:09:37.653Z,100.00
2019-05-18T21:12:07.204Z,100.00
2019-05-18T21:14:36.667Z,100.00
2019-05-18T21:17:06.140Z,100.00
2019-05-18T21:19:35.586Z,100.00
2019-05-18T21:22:05.110Z,100.00
2019-05-18T21:24:34.420Z,100.00
2019-05-18T21:27:03.789Z,100.00
2019-05-18T21:29:33.405Z,100.00
2019-05-18T21:32:02.853Z,100.00
2019-05-18T21:34:32.291Z,100.00
2019-05-18T21:37:01.746Z,100.00
2019-05-18T21:39:31.055Z,100.00
2019-05-18T21:42:00.448Z,100.00
2019-05-18T21:44:29.775Z,100.00
2019-05-18T21:46:59.106Z,100.00
2019-05-18T21:49:28.675Z,100.00
2019-05-18T21:51:57.961Z,100.00
2019-05-18T21:54:27.328Z,100.00
2019-05-18T21:56:57.123Z,100.00
2019-05-18T21:59:26.670Z,100.00
2019-05-18T22:01:56.012Z,100.00
2019-05-18T22:04:25.385Z,100.00
2019-05-18T22:06:54.886Z,100.00
2019-05-18T22:09:24.527Z,100.00
2019-05-18T22:11:54.119Z,100.00
2019-05-18T22:14:23.475Z,100.00
2019-05-18T22:16:52.789Z,100.00
2019-05-18T22:19:22.203Z,100.00
2019-05-18T22:21:51.660Z,100.00
2019-05-18T22:24:21.180Z,100.00
2019-05-18T22:26:50.802Z,100.00
2019-05-18T22:29:20.423Z,100.00
2019-05-18T22:31:49.801Z,100.00
2019-05-18T22:34:19.387Z,100.00
2019-05-18T22:36:48.821Z,100.00
2019-05-18T22:39:18.174Z,100.00
2019-05-18T22:41:47.657Z,100.00
2019-05-18T22:44:17.149Z,100.00
2019-05-18T22:46:46.452Z,100.00
2019-05-18T22:49:15.762Z,100.00
2019-05-18T22:51:45.285Z,100.00
2019-05-18T22:54:14.577Z,100.00
2019-05-18T22:56:43.957Z,100.00
2019-05-18T22:59:13.429Z,100.00
2019-05-18T23:01:42.754Z,100.00
2019-05-18T23:04:12.163Z,100.00
2019-05-18T23:06:41.656Z,100.00
2019-05-18T23:09:11.006Z,100.00
2019-05-18T23:11:40.428Z,100.00
2019-05-18T23:14:10.089Z,100.00
2019-05-18T23:16:39.464Z,100.00
2019-05-18T23:19:08.844Z,100.00
2019-05-18T23:21:38.303Z,100.00
2019-05-18T23:24:07.690Z,100.00
2019-05-18T23:26:37.526Z,100.00
2019-05-18T23:29:07.157Z,100.00
2019-05-18T23:31:36.447Z,100.00
2019-05-18T23:34:05.825Z,100.00
2019-05-18T23:36:35.282Z,100.00
2019-05-18T23:39:05.721Z,100.00
2019-05-18T23:41:35.219Z,100.00
2019-05-18T23:44:04.832Z,100.00
2019-05-18T23:46:34.116Z,100.00
2019-05-18T23:49:11.056Z,100.00
2019-05-18T23:51:34.917Z,100.00
2019-05-18T23:54:04.181Z,100.00
2019-05-18T23:56:33.549Z,100.00
2019-05-18T23:59:03.061Z,100.00
